Time;durP1;ratioP1;P1;durP2;ratioP2;P2;SDS_P1;SDS_P2;PMS_P1;PMS_P2;Temp;Humidity;BMP_temperature;BMP_pressure;BME280_temperature;BME280_humidity;BME280_pressure;Samples;Min_cycle;Max_cycle;Signal;HPM_P1;HPM_P2
2023/07/05 00:00:23;;;;;;;9.70;4.00;;;;;;;;;;5119308;28;20361;-74
2023/07/05 00:02:55;;;;;;;11.18;4.15;;;;;;;;;;5118372;28;20087;-74
2023/07/05 00:05:21;;;;;;;7.97;4.03;;;;;;;;;;5102745;28;20047;-74
2023/07/05 00:07:47;;;;;;;9.93;4.50;;;;;;;;;;5093022;28;20037;-74
2023/07/05 00:10:13;;;;;;;7.65;4.18;;;;;;;;;;5092127;28;20040;-74
2023/07/05 00:12:39;;;;;;;10.63;4.28;;;;;;;;;;5109788;28;20092;-75
2023/07/05 00:15:06;;;;;;;9.18;4.30;;;;;;;;;;5079952;28;20044;-74
2023/07/05 00:17:33;;;;;;;10.00;4.43;;;;;;;;;;5093965;28;20040;-75
2023/07/05 00:19:59;;;;;;;11.10;4.38;;;;;;;;;;5095884;28;20051;-75
2023/07/05 00:22:28;;;;;;;10.35;4.57;;;;;;;;;;5075757;28;20064;-75
2023/07/05 00:24:55;;;;;;;10.18;4.32;;;;;;;;;;5096120;28;20471;-74
2023/07/05 00:27:21;;;;;;;11.95;4.60;;;;;;;;;;5083754;28;20132;-75
2023/07/05 00:29:47;;;;;;;9.00;4.38;;;;;;;;;;5057383;28;20374;-74
2023/07/05 00:32:13;;;;;;;9.55;4.28;;;;;;;;;;5069533;28;20051;-75
2023/07/05 00:34:40;;;;;;;9.75;4.70;;;;;;;;;;5075534;28;20094;-75
2023/07/05 00:37:06;;;;;;;8.95;4.68;;;;;;;;;;5067651;28;20047;-75
2023/07/05 00:39:32;;;;;;;9.65;4.82;;;;;;;;;;5095912;28;20039;-75
2023/07/05 00:41:58;;;;;;;11.77;4.68;;;;;;;;;;5095980;28;20043;-74
2023/07/05 00:44:24;;;;;;;10.63;4.97;;;;;;;;;;5095103;28;20400;-75
2023/07/05 00:46:53;;;;;;;10.60;5.45;;;;;;;;;;5074683;28;20047;-75
2023/07/05 00:49:21;;;;;;;12.48;5.47;;;;;;;;;;5067132;28;20044;-75
2023/07/05 00:51:55;;;;;;;9.77;5.15;;;;;;;;;;5078639;28;20122;-74
2023/07/05 00:54:24;;;;;;;11.38;5.45;;;;;;;;;;5094606;28;20499;-75
2023/07/05 00:57:10;;;;;;;9.35;5.30;;;;;;;;;;5095567;28;20396;-75
2023/07/05 00:59:41;;;;;;;12.07;5.72;;;;;;;;;;5064851;28;20052;-74
2023/07/05 01:02:07;;;;;;;11.50;5.45;;;;;;;;;;5074996;28;20130;-74
2023/07/05 01:04:34;;;;;;;13.13;5.45;;;;;;;;;;5081977;28;20036;-75
2023/07/05 01:07:00;;;;;;;9.07;5.30;;;;;;;;;;5095290;28;20109;-74
2023/07/05 01:09:26;;;;;;;12.70;5.30;;;;;;;;;;5076966;28;20115;-75
2023/07/05 01:11:56;;;;;;;11.80;5.15;;;;;;;;;;5094735;28;20051;-75
2023/07/05 01:14:27;;;;;;;12.40;5.95;;;;;;;;;;5076998;28;20097;-75
2023/07/05 01:16:59;;;;;;;12.68;5.68;;;;;;;;;;5095232;28;20083;-75
2023/07/05 01:19:32;;;;;;;11.15;5.50;;;;;;;;;;5094879;28;20040;-75
2023/07/05 01:22:01;;;;;;;10.35;5.75;;;;;;;;;;5094574;28;20093;-75
2023/07/05 01:24:50;;;;;;;9.13;5.43;;;;;;;;;;5075748;28;20036;-74
2023/07/05 01:27:36;;;;;;;14.98;6.00;;;;;;;;;;5077975;28;20044;-75
2023/07/05 01:30:09;;;;;;;12.55;6.47;;;;;;;;;;5081771;28;20221;-75
2023/07/05 01:32:37;;;;;;;14.02;6.80;;;;;;;;;;5086887;28;20094;-74
2023/07/05 01:35:05;;;;;;;15.68;6.88;;;;;;;;;;5083794;28;20047;-74
2023/07/05 01:37:34;;;;;;;12.07;6.72;;;;;;;;;;5074878;28;20056;-74
2023/07/05 01:40:02;;;;;;;13.02;7.00;;;;;;;;;;5074508;28;20366;-75
2023/07/05 01:42:30;;;;;;;17.17;7.60;;;;;;;;;;5073540;28;20124;-74
2023/07/05 01:44:56;;;;;;;14.27;7.53;;;;;;;;;;5065973;28;20044;-74
2023/07/05 01:47:26;;;;;;;15.40;7.88;;;;;;;;;;5091353;28;20044;-75
2023/07/05 01:50:08;;;;;;;17.50;8.35;;;;;;;;;;5080586;28;20043;-74
2023/07/05 01:52:34;;;;;;;13.45;8.10;;;;;;;;;;5093729;28;20040;-74
2023/07/05 01:55:12;;;;;;;15.20;8.60;;;;;;;;;;5079521;28;20119;-74
2023/07/05 01:57:51;;;;;;;15.77;8.95;;;;;;;;;;5076800;28;20497;-74
2023/07/05 02:00:19;;;;;;;16.00;8.90;;;;;;;;;;5093447;28;20054;-75
2023/07/05 02:02:51;;;;;;;17.00;9.32;;;;;;;;;;5094066;28;20048;-75
2023/07/05 02:05:17;;;;;;;23.05;10.07;;;;;;;;;;5075758;28;20036;-74
2023/07/05 02:07:44;;;;;;;15.95;9.50;;;;;;;;;;5076536;28;20040;-75
2023/07/05 02:10:13;;;;;;;17.38;9.45;;;;;;;;;;5068061;28;20424;-75
2023/07/05 02:12:40;;;;;;;16.98;9.70;;;;;;;;;;5074267;28;20048;-75
2023/07/05 02:15:06;;;;;;;20.08;10.77;;;;;;;;;;5055929;28;20091;-75
2023/07/05 02:17:32;;;;;;;18.67;10.50;;;;;;;;;;5073983;28;20094;-73
2023/07/05 02:19:58;;;;;;;18.60;10.30;;;;;;;;;;5074713;28;20072;-73
2023/07/05 02:22:24;;;;;;;16.75;9.65;;;;;;;;;;5056260;28;20053;-74
2023/07/05 02:24:51;;;;;;;18.73;10.40;;;;;;;;;;5056145;28;20401;-74
2023/07/05 02:27:18;;;;;;;15.25;10.35;;;;;;;;;;5055368;28;20040;-74
2023/07/05 02:29:44;;;;;;;16.60;9.85;;;;;;;;;;5055762;28;20415;-74
2023/07/05 02:32:10;;;;;;;17.63;10.35;;;;;;;;;;5074568;28;20051;-74
2023/07/05 02:34:40;;;;;;;15.23;10.30;;;;;;;;;;5059834;28;20497;-74
2023/07/05 02:37:07;;;;;;;19.92;11.38;;;;;;;;;;5093364;28;20185;-74
2023/07/05 02:39:33;;;;;;;22.38;11.18;;;;;;;;;;5093266;28;20041;-74
2023/07/05 02:41:59;;;;;;;20.98;11.32;;;;;;;;;;5057702;28;20048;-74
2023/07/05 02:44:25;;;;;;;19.48;11.77;;;;;;;;;;5073548;28;20076;-75
2023/07/05 02:46:51;;;;;;;18.88;11.50;;;;;;;;;;5056685;28;20055;-74
2023/07/05 02:49:17;;;;;;;19.38;11.68;;;;;;;;;;5084470;28;20072;-75
2023/07/05 02:51:43;;;;;;;18.55;11.55;;;;;;;;;;5073391;28;20079;-74
2023/07/05 02:54:10;;;;;;;17.63;12.75;;;;;;;;;;5072751;28;20036;-75
2023/07/05 02:56:36;;;;;;;20.85;12.90;;;;;;;;;;5093536;28;20075;-74
2023/07/05 02:59:02;;;;;;;23.30;13.40;;;;;;;;;;5093653;28;20079;-74
2023/07/05 03:01:28;;;;;;;20.45;13.18;;;;;;;;;;5093597;28;20135;-74
2023/07/05 03:03:54;;;;;;;19.92;12.93;;;;;;;;;;5093415;28;20044;-74
2023/07/05 03:06:20;;;;;;;21.35;13.63;;;;;;;;;;5093221;28;20052;-74
2023/07/05 03:08:48;;;;;;;17.45;12.75;;;;;;;;;;5092825;28;20040;-74
2023/07/05 03:11:14;;;;;;;23.40;14.32;;;;;;;;;;5091478;28;20055;-75
2023/07/05 03:13:40;;;;;;;21.98;13.73;;;;;;;;;;5058587;28;20415;-75
2023/07/05 03:16:07;;;;;;;22.30;15.88;;;;;;;;;;5093245;28;20438;-74
2023/07/05 03:18:33;;;;;;;23.67;14.75;;;;;;;;;;5068137;28;20044;-74
2023/07/05 03:20:59;;;;;;;25.40;16.15;;;;;;;;;;5082598;28;20056;-75
2023/07/05 03:23:26;;;;;;;27.60;17.25;;;;;;;;;;5084618;28;20052;-75
2023/07/05 03:25:59;;;;;;;28.27;17.98;;;;;;;;;;5093448;28;20499;-75
2023/07/05 03:28:26;;;;;;;25.63;17.90;;;;;;;;;;5097999;28;20054;-74
2023/07/05 03:31:08;;;;;;;30.27;19.83;;;;;;;;;;5110875;28;20119;-74
2023/07/05 03:33:35;;;;;;;31.92;20.40;;;;;;;;;;5109637;28;20135;-75
2023/07/05 03:36:03;;;;;;;31.77;20.60;;;;;;;;;;5106583;28;20040;-75
2023/07/05 03:38:29;;;;;;;27.85;19.52;;;;;;;;;;5093223;28;20549;-74
2023/07/05 03:40:57;;;;;;;24.15;18.17;;;;;;;;;;5108775;28;20456;-74
2023/07/05 03:43:24;;;;;;;27.08;19.38;;;;;;;;;;5110687;28;20176;-74
2023/07/05 03:45:51;;;;;;;31.45;18.50;;;;;;;;;;5091353;28;20484;-75
2023/07/05 03:48:17;;;;;;;31.85;20.42;;;;;;;;;;5094490;28;20089;-74
2023/07/05 03:50:43;;;;;;;27.02;18.33;;;;;;;;;;5107432;28;20089;-74
2023/07/05 03:53:10;;;;;;;32.40;20.10;;;;;;;;;;5105403;28;20042;-74
2023/07/05 03:55:36;;;;;;;31.08;20.70;;;;;;;;;;5113578;28;20055;-75
2023/07/05 03:58:02;;;;;;;29.05;19.08;;;;;;;;;;5111811;28;20492;-75
2023/07/05 04:00:29;;;;;;;27.20;17.77;;;;;;;;;;5110915;28;20044;-75
2023/07/05 04:02:55;;;;;;;26.50;16.38;;;;;;;;;;5110756;28;20062;-75
2023/07/05 04:05:21;;;;;;;24.52;16.20;;;;;;;;;;5111389;28;20039;-75
2023/07/05 04:07:47;;;;;;;21.83;15.68;;;;;;;;;;5113162;28;20048;-75
2023/07/05 04:10:13;;;;;;;23.35;16.52;;;;;;;;;;5112458;28;20036;-75
2023/07/05 04:12:39;;;;;;;18.48;15.20;;;;;;;;;;5111892;28;20047;-75
2023/07/05 04:15:06;;;;;;;20.85;15.35;;;;;;;;;;5110024;28;20156;-74
2023/07/05 04:17:32;;;;;;;19.75;13.60;;;;;;;;;;5111481;28;20055;-75
2023/07/05 04:19:58;;;;;;;18.10;13.18;;;;;;;;;;5112387;28;20043;-75
2023/07/05 04:22:24;;;;;;;13.88;10.30;;;;;;;;;;5103906;28;20479;-75
2023/07/05 04:24:50;;;;;;;14.32;11.18;;;;;;;;;;5098184;28;20101;-74
2023/07/05 04:27:16;;;;;;;15.48;11.10;;;;;;;;;;5103836;28;20126;-74
2023/07/05 04:29:42;;;;;;;14.23;11.65;;;;;;;;;;5100186;28;20036;-74
2023/07/05 04:32:09;;;;;;;15.00;11.95;;;;;;;;;;5090325;28;20135;-75
2023/07/05 04:34:35;;;;;;;13.45;11.40;;;;;;;;;;5103973;28;20097;-75
2023/07/05 04:37:01;;;;;;;18.27;11.40;;;;;;;;;;5095903;28;20048;-75
2023/07/05 04:39:27;;;;;;;15.55;11.68;;;;;;;;;;5100715;28;20040;-75
2023/07/05 04:41:53;;;;;;;16.40;11.40;;;;;;;;;;5109631;28;20094;-75
2023/07/05 04:44:19;;;;;;;16.35;11.00;;;;;;;;;;5104945;28;20055;-74
2023/07/05 04:46:45;;;;;;;14.07;10.77;;;;;;;;;;5090833;28;20036;-75
2023/07/05 04:49:11;;;;;;;14.68;10.52;;;;;;;;;;5092900;28;20052;-74
2023/07/05 04:51:37;;;;;;;13.25;10.45;;;;;;;;;;5097081;28;20488;-75
2023/07/05 04:54:04;;;;;;;14.75;9.57;;;;;;;;;;5111602;28;20047;-75
2023/07/05 04:56:30;;;;;;;13.02;9.02;;;;;;;;;;5090506;28;20056;-74
2023/07/05 04:58:57;;;;;;;12.57;8.85;;;;;;;;;;5093595;28;20105;-74
2023/07/05 05:01:23;;;;;;;13.20;9.15;;;;;;;;;;5108294;28;20058;-75
2023/07/05 05:03:49;;;;;;;11.77;8.45;;;;;;;;;;5101580;28;20096;-75
2023/07/05 05:06:15;;;;;;;13.15;8.02;;;;;;;;;;5095319;28;20043;-75
2023/07/05 05:08:41;;;;;;;11.23;7.75;;;;;;;;;;5093886;28;20043;-74
2023/07/05 05:11:07;;;;;;;10.40;6.65;;;;;;;;;;5079290;28;20055;-75
2023/07/05 05:13:34;;;;;;;12.30;5.28;;;;;;;;;;5114986;28;20398;-74
2023/07/05 05:16:00;;;;;;;9.27;5.00;;;;;;;;;;5115336;28;20122;-74
2023/07/05 05:18:28;;;;;;;10.52;5.13;;;;;;;;;;5113108;28;20131;-75
2023/07/05 05:20:54;;;;;;;9.57;4.68;;;;;;;;;;5095358;28;20048;-75
2023/07/05 05:23:20;;;;;;;7.68;4.47;;;;;;;;;;5107287;28;20048;-76
2023/07/05 05:25:47;;;;;;;7.53;4.10;;;;;;;;;;5096281;28;20135;-71
2023/07/05 05:28:14;;;;;;;7.07;4.70;;;;;;;;;;5114891;28;20097;-74
2023/07/05 05:30:40;;;;;;;9.23;4.60;;;;;;;;;;5113771;28;20344;-74
2023/07/05 05:33:07;;;;;;;8.48;4.65;;;;;;;;;;5114273;28;20055;-74
2023/07/05 05:35:34;;;;;;;6.28;4.25;;;;;;;;;;5115650;28;20496;-75
2023/07/05 05:38:01;;;;;;;9.90;4.28;;;;;;;;;;5114586;28;20051;-74
2023/07/05 05:40:27;;;;;;;7.57;4.60;;;;;;;;;;5115173;28;20404;-74
2023/07/05 05:42:53;;;;;;;7.28;4.80;;;;;;;;;;5115015;28;20472;-73
2023/07/05 05:45:20;;;;;;;7.03;4.38;;;;;;;;;;5113721;28;20088;-73
2023/07/05 05:47:46;;;;;;;10.75;4.97;;;;;;;;;;5115224;28;20043;-74
2023/07/05 05:50:12;;;;;;;6.10;4.28;;;;;;;;;;5112961;28;20036;-74
2023/07/05 05:52:38;;;;;;;9.32;4.32;;;;;;;;;;5113467;28;20064;-74
2023/07/05 05:55:04;;;;;;;8.32;4.43;;;;;;;;;;5093348;28;20059;-74
2023/07/05 05:57:30;;;;;;;5.78;4.22;;;;;;;;;;5094609;28;20050;-75
2023/07/05 05:59:57;;;;;;;6.57;4.50;;;;;;;;;;5114242;28;20129;-74
2023/07/05 06:02:23;;;;;;;9.95;4.60;;;;;;;;;;5113477;28;20047;-74
2023/07/05 06:04:49;;;;;;;9.90;4.95;;;;;;;;;;5114646;28;20039;-75
2023/07/05 06:07:15;;;;;;;6.35;4.50;;;;;;;;;;5109421;28;20415;-74
2023/07/05 06:09:46;;;;;;;8.38;4.40;;;;;;;;;;5102575;28;20101;-74
2023/07/05 06:12:12;;;;;;;6.47;4.32;;;;;;;;;;5092857;28;20044;-74
2023/07/05 06:14:39;;;;;;;8.15;4.45;;;;;;;;;;5111704;28;20043;-75
2023/07/05 06:17:05;;;;;;;6.20;4.25;;;;;;;;;;5114422;28;20048;-74
2023/07/05 06:19:31;;;;;;;7.05;4.05;;;;;;;;;;5114396;28;20043;-74
2023/07/05 06:22:00;;;;;;;7.13;4.47;;;;;;;;;;5109330;28;20561;-74
2023/07/05 06:24:26;;;;;;;6.65;4.07;;;;;;;;;;5072077;28;20120;-74
2023/07/05 06:26:52;;;;;;;6.88;4.10;;;;;;;;;;5055549;28;20045;-74
2023/07/05 06:29:18;;;;;;;7.78;3.83;;;;;;;;;;5072197;28;20378;-74
2023/07/05 06:31:44;;;;;;;7.80;3.90;;;;;;;;;;5070886;28;20474;-74
2023/07/05 06:34:11;;;;;;;6.47;4.05;;;;;;;;;;5073599;28;20043;-73
2023/07/05 06:36:37;;;;;;;6.03;3.92;;;;;;;;;;5073628;28;20051;-73
2023/07/05 06:39:03;;;;;;;6.78;3.92;;;;;;;;;;5073839;28;20065;-74
2023/07/05 06:41:30;;;;;;;9.43;3.90;;;;;;;;;;5066556;28;20049;-74
2023/07/05 06:43:57;;;;;;;7.75;4.20;;;;;;;;;;5073308;28;20129;-74
2023/07/05 06:46:23;;;;;;;7.57;4.18;;;;;;;;;;5085683;28;20397;-74
2023/07/05 06:48:50;;;;;;;6.90;3.90;;;;;;;;;;5092542;28;20462;-74
2023/07/05 06:51:16;;;;;;;7.85;3.90;;;;;;;;;;5061888;28;20046;-71
2023/07/05 06:53:43;;;;;;;5.38;3.45;;;;;;;;;;5093433;28;20047;-73
2023/07/05 06:56:09;;;;;;;6.03;3.92;;;;;;;;;;5093893;28;20070;-72
2023/07/05 06:58:36;;;;;;;6.32;3.35;;;;;;;;;;5091233;28;20623;-74
2023/07/05 07:01:03;;;;;;;5.78;3.45;;;;;;;;;;5075077;28;20455;-74
2023/07/05 07:03:29;;;;;;;6.95;3.47;;;;;;;;;;5073107;28;20040;-75
2023/07/05 07:05:56;;;;;;;6.93;3.70;;;;;;;;;;5093067;28;20083;-73
2023/07/05 07:08:22;;;;;;;8.88;3.78;;;;;;;;;;5088011;28;20044;-73
2023/07/05 07:10:48;;;;;;;6.10;4.07;;;;;;;;;;5074337;28;20523;-73
2023/07/05 07:13:15;;;;;;;9.07;3.53;;;;;;;;;;5077277;28;20040;-72
2023/07/05 07:15:41;;;;;;;7.22;3.80;;;;;;;;;;5091903;28;20048;-73
2023/07/05 07:18:08;;;;;;;8.10;4.25;;;;;;;;;;5092859;28;20055;-73
2023/07/05 07:20:34;;;;;;;7.75;3.47;;;;;;;;;;5092635;28;20044;-73
2023/07/05 07:23:00;;;;;;;7.97;3.92;;;;;;;;;;5083170;28;20090;-74
2023/07/05 07:25:27;;;;;;;7.35;4.05;;;;;;;;;;5112945;28;20158;-72
2023/07/05 07:27:53;;;;;;;5.50;3.30;;;;;;;;;;5111606;28;20456;-72
2023/07/05 07:30:20;;;;;;;5.15;3.30;;;;;;;;;;5112549;28;20040;-72
2023/07/05 07:32:46;;;;;;;5.95;3.45;;;;;;;;;;5099691;28;20439;-71
2023/07/05 07:35:13;;;;;;;6.00;3.53;;;;;;;;;;5090881;28;20063;-72
2023/07/05 07:37:39;;;;;;;8.23;3.58;;;;;;;;;;5092067;28;20105;-72
2023/07/05 07:40:06;;;;;;;6.05;3.67;;;;;;;;;;5091868;28;20048;-72
2023/07/05 07:42:32;;;;;;;6.13;3.60;;;;;;;;;;5105068;28;20050;-72
2023/07/05 07:44:59;;;;;;;6.38;3.38;;;;;;;;;;5092257;28;20051;-71
2023/07/05 07:47:25;;;;;;;6.60;3.63;;;;;;;;;;5097766;28;20093;-72
2023/07/05 07:49:52;;;;;;;5.63;3.10;;;;;;;;;;5110990;28;20396;-73
2023/07/05 07:52:19;;;;;;;7.85;3.53;;;;;;;;;;5109141;28;20413;-72
2023/07/05 07:54:45;;;;;;;7.93;3.28;;;;;;;;;;5105891;28;20036;-72
2023/07/05 07:57:11;;;;;;;7.63;3.65;;;;;;;;;;5103826;28;20044;-72
2023/07/05 07:59:41;;;;;;;9.60;3.70;;;;;;;;;;5094048;28;20369;-72
2023/07/05 08:02:14;;;;;;;11.45;3.75;;;;;;;;;;5108207;28;20373;-71
2023/07/05 08:04:43;;;;;;;6.38;3.70;;;;;;;;;;5106953;28;20056;-71
2023/07/05 08:07:09;;;;;;;6.25;3.92;;;;;;;;;;5105616;28;20165;-71
2023/07/05 08:09:35;;;;;;;9.90;4.00;;;;;;;;;;5111957;28;20051;-71
2023/07/05 08:12:01;;;;;;;6.22;3.20;;;;;;;;;;5112240;28;20087;-72
2023/07/05 08:14:28;;;;;;;5.57;2.50;;;;;;;;;;5110893;28;20124;-72
2023/07/05 08:16:54;;;;;;;6.32;2.47;;;;;;;;;;5098019;28;20051;-72
2023/07/05 08:19:21;;;;;;;4.88;2.35;;;;;;;;;;5105409;28;20079;-72
2023/07/05 08:21:47;;;;;;;13.70;2.55;;;;;;;;;;5110237;28;20067;-72
2023/07/05 08:24:14;;;;;;;12.05;2.13;;;;;;;;;;5099348;28;20043;-73
2023/07/05 08:26:41;;;;;;;3.88;2.25;;;;;;;;;;5112335;28;20412;-72
2023/07/05 08:29:08;;;;;;;6.35;1.80;;;;;;;;;;5112452;28;20036;-72
2023/07/05 08:31:35;;;;;;;7.97;2.08;;;;;;;;;;5111836;28;20385;-73
2023/07/05 08:34:01;;;;;;;4.72;2.17;;;;;;;;;;5115491;28;20446;-73
2023/07/05 08:36:32;;;;;;;3.53;1.80;;;;;;;;;;5116274;28;20043;-72
2023/07/05 08:38:59;;;;;;;3.55;1.80;;;;;;;;;;5116069;28;20130;-73
2023/07/05 08:41:41;;;;;;;6.82;1.80;;;;;;;;;;5114964;28;20055;-72
2023/07/05 08:44:07;;;;;;;3.72;1.85;;;;;;;;;;5105008;28;20075;-73
2023/07/05 08:46:33;;;;;;;4.35;1.75;;;;;;;;;;5114091;28;20391;-73
2023/07/05 08:49:06;;;;;;;3.92;1.70;;;;;;;;;;5114750;28;20039;-72
2023/07/05 08:51:33;;;;;;;4.07;1.95;;;;;;;;;;5114534;28;20051;-72
2023/07/05 08:54:01;;;;;;;4.93;1.67;;;;;;;;;;5103590;28;20139;-72
2023/07/05 08:56:32;;;;;;;6.00;2.00;;;;;;;;;;5099329;28;20036;-72
2023/07/05 08:59:30;;;;;;;3.08;1.73;;;;;;;;;;5105940;28;20035;-71
2023/07/05 09:01:56;;;;;;;3.08;1.90;;;;;;;;;;5099719;28;20423;-72
2023/07/05 09:04:34;;;;;;;5.28;1.77;;;;;;;;;;5094641;28;20044;-73
2023/07/05 09:07:06;;;;;;;4.32;1.85;;;;;;;;;;5094687;28;20059;-72
2023/07/05 09:09:35;;;;;;;6.30;2.10;;;;;;;;;;5094954;28;20108;-72
2023/07/05 09:12:13;;;;;;;6.57;2.15;;;;;;;;;;5105728;28;20384;-72
2023/07/05 09:14:48;;;;;;;5.03;2.60;;;;;;;;;;5110933;28;20043;-72
2023/07/05 09:17:20;;;;;;;7.32;2.60;;;;;;;;;;5099560;28;20043;-72
2023/07/05 09:19:47;;;;;;;8.43;2.70;;;;;;;;;;5112847;28;20036;-72
2023/07/05 09:22:15;;;;;;;6.35;2.80;;;;;;;;;;5096956;28;20040;-72
2023/07/05 09:24:41;;;;;;;7.22;2.63;;;;;;;;;;5110861;28;20131;-72
2023/07/05 09:27:15;;;;;;;8.40;3.03;;;;;;;;;;5105560;28;20048;-73
2023/07/05 09:29:46;;;;;;;11.70;3.10;;;;;;;;;;5115247;28;20048;-73
2023/07/05 09:32:15;;;;;;;9.10;3.30;;;;;;;;;;5109929;28;20047;-74
2023/07/05 09:35:00;;;;;;;10.32;3.15;;;;;;;;;;5115251;28;20120;-73
2023/07/05 09:37:27;;;;;;;10.15;2.65;;;;;;;;;;5098133;28;20084;-72
2023/07/05 09:39:53;;;;;;;10.43;2.03;;;;;;;;;;5093776;28;20040;-72
2023/07/05 09:42:25;;;;;;;7.78;1.95;;;;;;;;;;5115144;28;20404;-72
2023/07/05 09:44:51;;;;;;;8.55;1.77;;;;;;;;;;5093632;28;20150;-72
2023/07/05 09:47:18;;;;;;;7.22;1.73;;;;;;;;;;5094640;28;20051;-73
2023/07/05 09:49:44;;;;;;;8.65;1.73;;;;;;;;;;5099641;28;20044;-71
2023/07/05 09:52:11;;;;;;;5.28;1.33;;;;;;;;;;5094766;28;20044;-70
2023/07/05 09:54:38;;;;;;;5.68;1.40;;;;;;;;;;5114641;28;20120;-71
2023/07/05 09:57:09;;;;;;;7.03;1.45;;;;;;;;;;5114687;28;20041;-71
2023/07/05 09:59:37;;;;;;;7.70;1.55;;;;;;;;;;5114562;28;20160;-71
2023/07/05 10:02:16;;;;;;;7.43;1.50;;;;;;;;;;5112713;28;20100;-71
2023/07/05 10:04:46;;;;;;;6.35;1.50;;;;;;;;;;5094128;28;20048;-70
2023/07/05 10:07:20;;;;;;;7.82;1.58;;;;;;;;;;5091556;28;20113;-70
2023/07/05 10:10:07;;;;;;;7.35;1.35;;;;;;;;;;5072605;28;20044;-70
2023/07/05 10:12:41;;;;;;;7.05;1.65;;;;;;;;;;5090939;28;20142;-70
2023/07/05 10:15:23;;;;;;;7.90;1.30;;;;;;;;;;5094340;28;20044;-69
2023/07/05 10:17:51;;;;;;;6.10;1.30;;;;;;;;;;5095619;28;20059;-69
2023/07/05 10:20:37;;;;;;;4.75;1.50;;;;;;;;;;5091898;28;20044;-69
2023/07/05 10:23:15;;;;;;;4.47;1.30;;;;;;;;;;5089910;28;20362;-70
2023/07/05 10:25:42;;;;;;;4.50;1.30;;;;;;;;;;5094765;28;20091;-69
2023/07/05 10:28:12;;;;;;;8.60;1.60;;;;;;;;;;5088757;28;20481;-70
2023/07/05 10:30:49;;;;;;;6.65;1.20;;;;;;;;;;5089826;28;20036;-70
2023/07/05 10:33:16;;;;;;;2.83;1.20;;;;;;;;;;5090834;28;20054;-69
2023/07/05 10:36:03;;;;;;;7.22;1.33;;;;;;;;;;5089160;28;20031;-69
2023/07/05 10:38:31;;;;;;;6.88;1.17;;;;;;;;;;5097326;28;20468;-70
2023/07/05 10:41:00;;;;;;;4.80;1.30;;;;;;;;;;5100822;28;20070;-70
2023/07/05 10:43:27;;;;;;;3.13;1.20;;;;;;;;;;5099263;28;20046;-70
2023/07/05 10:45:53;;;;;;;3.25;1.10;;;;;;;;;;5100645;28;20047;-69
2023/07/05 10:48:31;;;;;;;4.75;1.23;;;;;;;;;;5099297;28;20431;-69
2023/07/05 10:50:57;;;;;;;3.38;1.50;;;;;;;;;;5080392;28;20044;-70
2023/07/05 10:53:26;;;;;;;7.55;1.30;;;;;;;;;;5101485;28;20384;-70
2023/07/05 10:56:03;;;;;;;2.80;1.30;;;;;;;;;;5096753;28;20051;-69
2023/07/05 10:58:36;;;;;;;2.95;1.20;;;;;;;;;;5100423;28;20040;-70
2023/07/05 11:01:08;;;;;;;2.25;1.10;;;;;;;;;;5099550;28;20134;-69
2023/07/05 11:03:37;;;;;;;3.97;1.23;;;;;;;;;;5098081;28;20126;-69
2023/07/05 11:06:03;;;;;;;5.78;1.10;;;;;;;;;;5101376;28;20051;-70
2023/07/05 11:08:35;;;;;;;7.05;1.20;;;;;;;;;;5097576;28;20047;-73
2023/07/05 11:11:23;;;;;;;2.30;1.10;;;;;;;;;;5101199;28;20396;-72
2023/07/05 11:13:50;;;;;;;3.28;1.10;;;;;;;;;;5103291;28;20047;-72
2023/07/05 11:16:21;;;;;;;1.92;1.17;;;;;;;;;;5083718;28;20127;-72
2023/07/05 11:18:48;;;;;;;3.75;1.30;;;;;;;;;;5084484;28;20044;-72
2023/07/05 11:21:36;;;;;;;3.15;1.33;;;;;;;;;;5101601;28;20097;-71
2023/07/05 11:24:05;;;;;;;2.42;1.30;;;;;;;;;;5094581;28;20447;-72
2023/07/05 11:26:33;;;;;;;2.28;1.15;;;;;;;;;;5094169;28;20135;-71
2023/07/05 11:29:00;;;;;;;4.10;1.40;;;;;;;;;;5092290;28;20040;-73
2023/07/05 11:31:29;;;;;;;4.45;1.27;;;;;;;;;;5092092;28;20105;-72
2023/07/05 11:34:14;;;;;;;4.68;1.35;;;;;;;;;;5092202;28;20047;-72
2023/07/05 11:36:40;;;;;;;5.27;1.83;;;;;;;;;;5092495;28;20051;-72
2023/07/05 11:39:07;;;;;;;2.97;1.20;;;;;;;;;;5091382;28;20032;-72
2023/07/05 11:41:34;;;;;;;4.13;1.40;;;;;;;;;;5090255;28;20396;-72
2023/07/05 11:44:02;;;;;;;3.30;1.50;;;;;;;;;;5092568;28;20432;-72
2023/07/05 11:46:45;;;;;;;8.05;1.58;;;;;;;;;;5092393;28;20118;-72
2023/07/05 11:49:20;;;;;;;4.95;1.65;;;;;;;;;;5091109;28;20052;-72
2023/07/05 11:51:46;;;;;;;;;;;;;;;;;;5093045;28;20074;-72
2023/07/05 11:54:14;;;;;;;6.32;1.70;;;;;;;;;;5110400;28;19920;-72
2023/07/05 11:56:41;;;;;;;8.32;1.67;;;;;;;;;;5105506;28;20044;-74
2023/07/05 11:59:09;;;;;;;6.93;1.70;;;;;;;;;;5093999;28;20426;-71
2023/07/05 12:01:37;;;;;;;5.70;1.67;;;;;;;;;;5104222;28;20105;-71
2023/07/05 12:04:06;;;;;;;7.25;1.70;;;;;;;;;;5090858;28;20048;-72
2023/07/05 12:06:42;;;;;;;6.03;1.67;;;;;;;;;;5093317;28;20044;-73
2023/07/05 12:09:14;;;;;;;5.22;1.60;;;;;;;;;;5096657;28;20409;-71
2023/07/05 12:11:41;;;;;;;7.82;1.77;;;;;;;;;;5096035;28;20485;-72
2023/07/05 12:14:10;;;;;;;8.50;2.28;;;;;;;;;;5096700;28;20047;-72
2023/07/05 12:16:37;;;;;;;11.35;2.45;;;;;;;;;;5107218;28;20626;-72
2023/07/05 12:19:05;;;;;;;9.25;2.45;;;;;;;;;;5111597;28;20044;-72
2023/07/05 12:21:32;;;;;;;9.63;2.30;;;;;;;;;;5112086;28;20039;-72
2023/07/05 12:23:58;;;;;;;7.80;2.70;;;;;;;;;;5114020;28;20452;-72
2023/07/05 12:26:36;;;;;;;6.93;2.20;;;;;;;;;;5116082;28;20118;-72
2023/07/05 12:29:14;;;;;;;9.05;2.40;;;;;;;;;;5115401;28;20082;-73
2023/07/05 12:31:40;;;;;;;6.07;2.10;;;;;;;;;;5106496;28;20436;-73
2023/07/05 12:34:18;;;;;;;8.38;2.40;;;;;;;;;;5099506;28;20040;-72
2023/07/05 12:36:45;;;;;;;6.82;2.28;;;;;;;;;;5095674;28;20050;-72
2023/07/05 12:39:14;;;;;;;10.55;2.72;;;;;;;;;;5095567;28;20512;-73
2023/07/05 12:41:40;;;;;;;10.68;2.88;;;;;;;;;;5093803;28;20055;-73
2023/07/05 12:44:14;;;;;;;11.98;2.75;;;;;;;;;;5095775;28;20044;-73
2023/07/05 12:46:45;;;;;;;13.32;3.25;;;;;;;;;;5096119;28;20048;-73
2023/07/05 12:49:30;;;;;;;12.20;3.03;;;;;;;;;;5094364;28;20059;-72
2023/07/05 12:51:58;;;;;;;;;;;;;;;;;;5094702;28;20051;-72
2023/07/05 12:54:24;;;;;;;10.68;3.30;;;;;;;;;;5113933;28;19920;-72
2023/07/05 12:56:53;;;;;;;12.07;3.15;;;;;;;;;;5096076;28;20058;-73
2023/07/05 12:59:28;;;;;;;9.63;2.95;;;;;;;;;;5105861;28;20044;-70
2023/07/05 13:01:54;;;;;;;9.02;2.58;;;;;;;;;;5094212;28;20126;-72
2023/07/05 13:04:23;;;;;;;11.05;2.78;;;;;;;;;;5108324;28;20039;-72
2023/07/05 13:06:51;;;;;;;13.70;3.58;;;;;;;;;;5115870;28;20134;-72
2023/07/05 13:09:43;;;;;;;14.30;3.35;;;;;;;;;;5109170;28;20039;-72
2023/07/05 13:12:12;;;;;;;13.77;4.00;;;;;;;;;;5090221;28;20404;-72
2023/07/05 13:14:43;;;;;;;17.60;4.60;;;;;;;;;;5095109;28;20047;-72
2023/07/05 13:17:12;;;;;;;13.07;3.47;;;;;;;;;;5094722;28;20052;-73
2023/07/05 13:19:48;;;;;;;16.33;4.10;;;;;;;;;;5097239;28;20123;-75
2023/07/05 13:22:15;;;;;;;13.88;4.30;;;;;;;;;;5105065;28;20436;-72
2023/07/05 13:24:45;;;;;;;16.30;3.58;;;;;;;;;;5115465;28;20058;-72
2023/07/05 13:27:21;;;;;;;16.85;4.00;;;;;;;;;;5114077;28;20040;-72
2023/07/05 13:29:47;;;;;;;14.65;3.92;;;;;;;;;;5114935;28;20047;-72
2023/07/05 13:32:24;;;;;;;13.90;3.40;;;;;;;;;;5115281;28;20052;-72
2023/07/05 13:34:50;;;;;;;12.13;3.50;;;;;;;;;;5113399;28;20118;-72
2023/07/05 13:37:19;;;;;;;13.50;3.70;;;;;;;;;;5102817;28;20067;-72
2023/07/05 13:39:45;;;;;;;12.27;3.10;;;;;;;;;;5091824;28;20485;-72
2023/07/05 13:42:11;;;;;;;13.38;3.58;;;;;;;;;;5109160;28;20090;-72
2023/07/05 13:44:38;;;;;;;12.20;3.38;;;;;;;;;;5098366;28;20055;-72
2023/07/05 13:47:04;;;;;;;13.40;3.40;;;;;;;;;;5094842;28;20071;-71
2023/07/05 13:49:30;;;;;;;12.13;3.65;;;;;;;;;;5104485;28;20119;-71
2023/07/05 13:51:57;;;;;;;14.25;3.40;;;;;;;;;;5115033;28;20075;-73
2023/07/05 13:54:24;;;;;;;13.75;3.33;;;;;;;;;;5114636;28;20058;-73
2023/07/05 13:56:50;;;;;;;16.23;3.72;;;;;;;;;;5114627;28;20481;-71
2023/07/05 13:59:18;;;;;;;14.35;4.05;;;;;;;;;;5113734;28;20068;-73
2023/07/05 14:01:46;;;;;;;13.27;3.50;;;;;;;;;;5113452;28;20148;-73
2023/07/05 14:04:12;;;;;;;13.60;3.60;;;;;;;;;;5114824;28;20495;-75
2023/07/05 14:06:39;;;;;;;12.95;3.78;;;;;;;;;;5108152;28;20181;-72
2023/07/05 14:09:05;;;;;;;13.45;3.80;;;;;;;;;;5092985;28;20040;-72
2023/07/05 14:11:36;;;;;;;13.50;4.10;;;;;;;;;;5101924;28;20047;-72
2023/07/05 14:14:02;;;;;;;12.18;3.80;;;;;;;;;;5095720;28;20040;-72
2023/07/05 14:16:30;;;;;;;10.27;2.95;;;;;;;;;;5095709;28;20052;-73
2023/07/05 14:18:56;;;;;;;13.15;3.20;;;;;;;;;;5112059;28;20097;-73
2023/07/05 14:21:26;;;;;;;13.00;3.75;;;;;;;;;;5109910;28;20909;-72
2023/07/05 14:23:52;;;;;;;12.23;3.70;;;;;;;;;;5093713;28;20454;-73
2023/07/05 14:26:18;;;;;;;15.80;3.90;;;;;;;;;;5094104;28;20051;-73
2023/07/05 14:28:44;;;;;;;14.43;4.00;;;;;;;;;;5106149;28;20120;-73
2023/07/05 14:31:12;;;;;;;12.48;3.78;;;;;;;;;;5112895;28;20513;-73
2023/07/05 14:33:38;;;;;;;14.60;3.50;;;;;;;;;;5098986;28;20131;-73
2023/07/05 14:36:05;;;;;;;11.00;3.65;;;;;;;;;;5094476;28;20400;-73
2023/07/05 14:38:31;;;;;;;9.88;3.47;;;;;;;;;;5093676;28;20401;-71
2023/07/05 14:40:58;;;;;;;10.98;3.45;;;;;;;;;;5093144;28;20405;-72
2023/07/05 14:43:25;;;;;;;11.80;4.28;;;;;;;;;;5093223;28;20048;-72